createdAt,value
2022-12-14T00:02:19.413Z,48.47
2022-12-14T00:04:49.353Z,47.10
2022-12-14T00:07:19.088Z,43.83
2022-12-14T00:09:48.720Z,47.15
2022-12-14T00:12:19.159Z,45.85
2022-12-14T00:14:48.802Z,43.85
2022-12-14T00:17:18.691Z,45.83
2022-12-14T00:19:48.974Z,47.33
2022-12-14T00:22:18.808Z,44.50
2022-12-14T00:24:47.200Z,54.22
2022-12-14T00:27:15.682Z,43.60
2022-12-14T00:29:45.061Z,41.95
2022-12-14T00:32:12.474Z,48.25
2022-12-14T00:34:40.995Z,45.55
2022-12-14T00:37:09.439Z,44.53
2022-12-14T00:39:37.785Z,44.95
2022-12-14T00:42:08.646Z,41.33
2022-12-14T00:44:37.638Z,49.17
2022-12-14T00:47:06.143Z,53.97
2022-12-14T00:49:34.604Z,43.22
2022-12-14T00:52:03.316Z,57.65
2022-12-14T00:54:31.603Z,49.20
2022-12-14T00:57:00.356Z,42.10
2022-12-14T00:59:28.449Z,50.22
2022-12-14T01:01:57.287Z,45.67
2022-12-14T01:04:26.276Z,46.15
2022-12-14T01:06:55.321Z,48.88
2022-12-14T01:09:27.243Z,51.50
2022-12-14T01:11:56.671Z,45.13
2022-12-14T01:14:26.910Z,52.42
2022-12-14T01:16:56.691Z,47.75
2022-12-14T01:19:26.584Z,45.95
2022-12-14T01:21:56.412Z,45.63
2022-12-14T01:24:23.934Z,44.25
2022-12-14T01:26:53.864Z,47.03
2022-12-14T01:29:24.987Z,45.47
2022-12-14T01:31:54.439Z,49.17
2022-12-14T01:34:24.484Z,45.13
2022-12-14T01:36:54.318Z,47.05
2022-12-14T01:39:24.401Z,47.53
2022-12-14T01:41:53.945Z,38.83
2022-12-14T01:44:23.729Z,45.78
2022-12-14T01:47:12.722Z,50.08
2022-12-14T01:50:07.960Z,41.72
2022-12-14T01:52:47.063Z,44.40
2022-12-14T01:55:49.125Z,38.00
2022-12-14T01:58:26.362Z,38.47
2022-12-14T02:01:02.953Z,43.42
2022-12-14T02:03:42.827Z,46.92
2022-12-14T02:06:36.245Z,46.88
2022-12-14T02:09:18.842Z,43.95
2022-12-14T02:12:26.765Z,45.63
2022-12-14T02:14:58.967Z,40.88
2022-12-14T02:17:29.382Z,49.30
2022-12-14T02:19:59.662Z,44.30
2022-12-14T02:23:06.167Z,44.92
2022-12-14T02:26:09.207Z,48.05
2022-12-14T02:29:32.941Z,45.20
2022-12-14T02:33:06.698Z,42.83
2022-12-14T02:36:01.195Z,41.80
2022-12-14T02:38:52.848Z,38.80
2022-12-14T02:41:44.523Z,42.80
2022-12-14T02:44:46.911Z,44.55
2022-12-14T02:47:45.630Z,41.33
2022-12-14T02:51:11.725Z,35.00
2022-12-14T02:54:47.369Z,48.42
2022-12-14T02:57:33.395Z,51.20
2022-12-14T03:00:07.474Z,39.88
2022-12-14T03:02:44.072Z,44.90
2022-12-14T03:05:14.806Z,46.00
2022-12-14T03:08:19.109Z,37.67
2022-12-14T03:11:08.168Z,44.03
2022-12-14T03:16:44.536Z,36.05
2022-12-14T03:19:35.593Z,44.05
2022-12-14T03:22:23.419Z,42.78
2022-12-14T03:25:08.976Z,44.17
2022-12-14T03:27:55.751Z,45.00
2022-12-14T03:30:58.243Z,42.53
2022-12-14T03:33:29.364Z,37.85
2022-12-14T03:36:34.261Z,49.60
2022-12-14T03:39:17.367Z,44.97
2022-12-14T03:42:31.580Z,42.67
2022-12-14T03:45:22.257Z,41.88
2022-12-14T03:48:25.007Z,41.33
2022-12-14T03:51:07.056Z,46.65
2022-12-14T03:54:49.817Z,44.58
2022-12-14T03:57:55.614Z,47.00
2022-12-14T04:00:32.815Z,45.40
2022-12-14T04:03:54.239Z,49.70
2022-12-14T04:06:52.583Z,37.80
2022-12-14T04:10:44.876Z,38.97
2022-12-14T04:13:48.958Z,37.40
2022-12-14T04:16:49.465Z,45.00
2022-12-14T04:19:40.046Z,40.80
2022-12-14T04:22:25.874Z,47.80
2022-12-14T04:25:27.389Z,40.67
2022-12-14T04:29:00.007Z,44.63
2022-12-14T04:31:38.016Z,44.20
2022-12-14T04:34:16.023Z,39.33
2022-12-14T04:37:16.932Z,47.30
2022-12-14T04:40:20.463Z,46.72
2022-12-14T04:43:02.215Z,40.33
2022-12-14T04:45:49.031Z,41.55
2022-12-14T04:49:03.206Z,47.45
2022-12-14T04:52:03.409Z,47.40
2022-12-14T04:55:05.016Z,47.47
2022-12-14T04:58:06.514Z,42.45
2022-12-14T05:01:06.776Z,47.35
2022-12-14T05:04:12.123Z,43.35
2022-12-14T05:07:41.902Z,44.22
2022-12-14T05:10:37.611Z,41.45
2022-12-14T05:13:37.048Z,37.22
2022-12-14T05:16:08.563Z,43.53
2022-12-14T05:18:38.897Z,45.15
2022-12-14T05:21:30.595Z,41.47
2022-12-14T05:24:04.334Z,41.97
2022-12-14T05:26:34.678Z,42.65
2022-12-14T05:29:04.709Z,49.65
2022-12-14T05:31:35.357Z,38.70
2022-12-14T05:34:05.464Z,41.08
2022-12-14T05:36:35.635Z,50.30
2022-12-14T05:39:05.776Z,40.03
2022-12-14T05:41:35.772Z,51.45
2022-12-14T05:44:04.676Z,44.38
2022-12-14T05:46:32.950Z,39.00
2022-12-14T05:49:01.224Z,45.15
2022-12-14T05:51:29.632Z,41.00
2022-12-14T05:53:59.136Z,49.25
2022-12-14T05:56:26.657Z,42.45
2022-12-14T05:58:54.914Z,51.10
2022-12-14T06:01:23.666Z,44.10
2022-12-14T06:03:55.017Z,42.95
2022-12-14T06:06:23.472Z,49.70
2022-12-14T06:08:51.664Z,48.92
2022-12-14T06:11:23.948Z,42.05
2022-12-14T06:13:54.022Z,42.78
2022-12-14T06:16:26.713Z,37.30
2022-12-14T06:19:01.023Z,40.67
2022-12-14T06:21:39.482Z,37.05
2022-12-14T06:24:09.798Z,42.42
2022-12-14T06:26:42.441Z,40.17
2022-12-14T06:29:19.043Z,36.45
2022-12-14T06:31:49.652Z,38.08
2022-12-14T06:34:24.804Z,42.85
2022-12-14T06:40:57.720Z,39.22
2022-12-14T06:43:27.167Z,37.83
2022-12-14T06:45:57.545Z,43.95
2022-12-14T06:48:25.762Z,34.33
2022-12-14T06:51:01.615Z,38.95
2022-12-14T06:53:34.438Z,44.00
2022-12-14T06:56:10.100Z,45.13
2022-12-14T06:58:40.470Z,42.95
2022-12-14T07:01:17.031Z,38.40
2022-12-14T07:03:57.430Z,37.30
2022-12-14T07:06:35.087Z,39.42
2022-12-14T07:09:13.541Z,35.97
2022-12-14T07:11:43.656Z,42.30
2022-12-14T07:14:17.920Z,41.65
2022-12-14T07:16:48.691Z,41.00
2022-12-14T07:19:18.620Z,39.47
2022-12-14T07:21:48.005Z,45.88
2022-12-14T07:24:18.259Z,42.78
2022-12-14T07:26:48.266Z,37.63
2022-12-14T07:29:18.406Z,42.05
2022-12-14T07:31:49.405Z,36.05
2022-12-14T07:34:19.385Z,46.90
2022-12-14T07:36:54.219Z,38.60
2022-12-14T07:39:23.574Z,41.45
2022-12-14T07:41:52.237Z,41.58
2022-12-14T07:44:22.585Z,31.65
2022-12-14T07:46:54.106Z,40.00
2022-12-14T07:49:23.317Z,35.80
2022-12-14T07:51:53.372Z,36.05
2022-12-14T07:54:25.085Z,41.25
2022-12-14T07:56:54.563Z,43.65
2022-12-14T07:59:24.650Z,46.63
2022-12-14T08:01:55.758Z,42.80
2022-12-14T08:04:25.074Z,42.60
2022-12-14T08:06:55.615Z,36.00
2022-12-14T08:09:25.345Z,39.25
2022-12-14T08:11:55.348Z,43.45
2022-12-14T08:14:25.495Z,39.72
2022-12-14T08:16:55.536Z,38.33
2022-12-14T08:19:25.914Z,37.13
2022-12-14T08:21:55.804Z,42.15
2022-12-14T08:24:25.849Z,42.40
2022-12-14T08:26:55.565Z,47.40
2022-12-14T08:29:25.615Z,37.72
2022-12-14T08:31:56.534Z,40.72
2022-12-14T08:34:26.061Z,42.58
2022-12-14T08:36:56.091Z,50.40
2022-12-14T08:39:26.182Z,42.55
2022-12-14T08:41:56.198Z,46.03
2022-12-14T08:44:26.680Z,43.97
2022-12-14T08:46:56.533Z,49.53
2022-12-14T08:49:32.098Z,44.55
2022-12-14T08:51:59.824Z,56.65
2022-12-14T08:54:28.284Z,39.40
2022-12-14T08:56:56.622Z,41.70
2022-12-14T08:59:59.366Z,41.13
2022-12-14T09:02:15.171Z,45.20
2022-12-14T09:04:45.252Z,65.53
2022-12-14T09:07:13.779Z,53.40
2022-12-14T09:09:42.423Z,38.20
2022-12-14T09:12:14.190Z,44.53
2022-12-14T09:14:42.185Z,44.25
2022-12-14T09:17:10.343Z,38.80
2022-12-14T09:19:39.016Z,42.65
2022-12-14T09:22:07.669Z,42.83
2022-12-14T09:24:36.695Z,44.88
2022-12-14T09:27:04.379Z,42.95
2022-12-14T09:29:32.508Z,48.25
2022-12-14T09:32:00.920Z,38.55
2022-12-14T09:34:29.607Z,38.30
2022-12-14T09:36:58.005Z,39.20
2022-12-14T09:39:26.152Z,40.55
2022-12-14T09:42:50.786Z,41.25
2022-12-14T09:45:50.614Z,42.72
2022-12-14T09:48:26.003Z,39.70
2022-12-14T09:50:54.695Z,40.63
2022-12-14T09:53:24.980Z,44.38
2022-12-14T09:55:59.040Z,35.70
2022-12-14T09:58:32.637Z,40.97
2022-12-14T10:01:22.322Z,43.28
2022-12-14T10:04:10.319Z,38.75
2022-12-14T10:07:02.222Z,45.55
2022-12-14T10:10:43.716Z,41.90
2022-12-14T10:13:56.967Z,41.72
2022-12-14T10:16:51.657Z,40.00
2022-12-14T10:19:57.278Z,37.42
2022-12-14T10:22:42.479Z,41.70
2022-12-14T10:25:37.450Z,36.90
2022-12-14T10:28:36.256Z,41.83
2022-12-14T10:31:20.888Z,35.85
2022-12-14T10:33:50.727Z,39.95
2022-12-14T10:36:44.824Z,40.25
2022-12-14T10:40:15.777Z,48.08
2022-12-14T10:43:32.888Z,45.35
2022-12-14T10:46:56.295Z,43.80
2022-12-14T10:49:55.387Z,42.95
2022-12-14T10:52:41.678Z,44.78
2022-12-14T10:55:44.167Z,38.58
2022-12-14T11:00:40.326Z,38.65
2022-12-14T11:03:15.834Z,40.05
2022-12-14T11:06:12.608Z,38.07
2022-12-14T11:08:49.596Z,38.33
2022-12-14T11:11:26.712Z,46.75
2022-12-14T11:14:10.014Z,43.72
2022-12-14T11:16:41.906Z,42.65
2022-12-14T11:19:26.644Z,38.65
2022-12-14T11:22:22.267Z,45.05
2022-12-14T11:24:52.735Z,35.50
2022-12-14T11:27:22.868Z,39.38
2022-12-14T11:29:53.040Z,44.78
2022-12-14T11:32:25.629Z,43.33
2022-12-14T11:34:59.727Z,41.35
2022-12-14T11:37:32.882Z,41.72
2022-12-14T11:40:27.116Z,41.92
2022-12-14T11:43:04.822Z,33.70
2022-12-14T11:45:37.427Z,43.75
2022-12-14T11:48:14.461Z,42.92
2022-12-14T11:50:46.821Z,45.15
2022-12-14T11:53:20.294Z,38.22
2022-12-14T11:55:58.962Z,40.72
2022-12-14T11:58:46.432Z,45.08
2022-12-14T12:01:26.769Z,35.75
2022-12-14T12:03:59.535Z,41.70
2022-12-14T12:06:30.854Z,39.58
2022-12-14T12:09:11.604Z,37.47
2022-12-14T12:11:46.345Z,41.17
2022-12-14T12:14:38.920Z,36.95
2022-12-14T12:17:46.904Z,39.28
2022-12-14T12:20:40.843Z,37.28
2022-12-14T12:23:35.487Z,33.63
2022-12-14T12:26:31.905Z,44.15
2022-12-14T12:29:31.697Z,36.55
2022-12-14T12:35:51.101Z,37.55
2022-12-14T12:39:06.246Z,35.92
2022-12-14T12:42:13.247Z,42.05
2022-12-14T12:45:55.026Z,38.90
2022-12-14T12:48:43.534Z,35.53
2022-12-14T12:51:32.594Z,35.47
2022-12-14T12:54:32.870Z,33.55
2022-12-14T12:57:11.219Z,37.63
2022-12-14T12:59:54.767Z,32.38
2022-12-14T13:02:46.601Z,39.10
2022-12-14T13:08:35.747Z,35.88
2022-12-14T13:11:28.427Z,39.60
2022-12-14T13:14:34.323Z,36.58
2022-12-14T13:17:49.591Z,39.33
2022-12-14T13:20:30.090Z,38.05
2022-12-14T13:23:28.376Z,36.85
2022-12-14T13:26:55.618Z,33.03
2022-12-14T13:29:48.125Z,44.05
2022-12-14T13:32:51.067Z,42.50
2022-12-14T13:35:35.827Z,36.35
2022-12-14T13:38:32.958Z,33.75
2022-12-14T13:42:07.457Z,40.55
2022-12-14T13:45:01.438Z,39.03
2022-12-14T13:47:49.383Z,44.42
2022-12-14T13:50:43.789Z,43.08
2022-12-14T13:53:42.367Z,48.50
2022-12-14T13:56:32.454Z,37.80
2022-12-14T13:59:34.196Z,42.95
2022-12-14T14:02:26.967Z,45.85
2022-12-14T14:05:15.516Z,36.38
2022-12-14T14:08:43.217Z,46.50
2022-12-14T14:11:40.022Z,41.13
2022-12-14T14:14:47.075Z,41.58
2022-12-14T14:17:38.078Z,41.00
2022-12-14T14:20:52.511Z,46.63
2022-12-14T14:23:23.403Z,46.20
2022-12-14T14:26:18.488Z,50.72
2022-12-14T14:29:29.690Z,48.90
2022-12-14T14:32:36.448Z,41.88
2022-12-14T14:35:27.620Z,48.10
2022-12-14T14:38:22.439Z,46.83
2022-12-14T14:41:18.396Z,51.97
2022-12-14T14:44:06.913Z,42.47
2022-12-14T14:46:48.783Z,53.55
2022-12-14T14:49:34.007Z,51.40
2022-12-14T14:52:37.839Z,47.10
2022-12-14T14:55:51.856Z,47.00
2022-12-14T14:58:36.970Z,51.10
2022-12-14T15:01:21.705Z,53.10
2022-12-14T15:04:21.557Z,43.45
2022-12-14T15:07:08.654Z,45.20
2022-12-14T15:09:50.799Z,49.50
2022-12-14T15:12:32.539Z,52.25
2022-12-14T15:15:42.996Z,48.95
2022-12-14T15:21:18.969Z,45.63
2022-12-14T15:23:55.874Z,46.08
2022-12-14T15:26:33.785Z,49.05
2022-12-14T15:29:04.673Z,59.45
2022-12-14T15:31:42.866Z,52.55
2022-12-14T15:34:20.694Z,63.17
2022-12-14T15:36:52.978Z,54.03
2022-12-14T15:39:43.681Z,50.42
2022-12-14T15:42:18.392Z,56.33
2022-12-14T15:45:18.406Z,52.80
2022-12-14T15:47:49.290Z,62.10
2022-12-14T15:50:34.537Z,51.05
2022-12-14T15:53:51.514Z,48.50
2022-12-14T15:56:40.743Z,52.95
2022-12-14T15:59:31.055Z,53.00
2022-12-14T16:02:32.521Z,50.83
2022-12-14T16:05:07.431Z,58.00
2022-12-14T16:07:45.095Z,56.63
2022-12-14T16:10:33.586Z,57.60
2022-12-14T16:15:52.695Z,60.33
2022-12-14T16:18:24.454Z,55.85
2022-12-14T16:21:06.494Z,59.88
2022-12-14T16:23:41.850Z,53.30
2022-12-14T16:26:16.250Z,62.85
2022-12-14T16:28:48.225Z,64.65
2022-12-14T16:31:24.105Z,64.88
2022-12-14T16:34:29.560Z,57.10
2022-12-14T16:39:54.568Z,61.67
2022-12-14T16:42:27.254Z,57.10
2022-12-14T16:44:55.555Z,56.75
2022-12-14T16:48:13.941Z,66.82
2022-12-14T16:51:04.958Z,63.28
2022-12-14T16:53:34.834Z,53.53
2022-12-14T16:56:20.882Z,60.13
2022-12-14T16:59:05.581Z,64.85
2022-12-14T17:01:46.996Z,60.85
2022-12-14T17:04:22.435Z,59.25
2022-12-14T17:06:56.520Z,60.20
2022-12-14T17:09:33.320Z,62.92
2022-12-14T17:12:17.823Z,60.60
2022-12-14T17:14:50.182Z,52.22
2022-12-14T17:17:35.798Z,70.00
2022-12-14T17:20:16.737Z,56.35
2022-12-14T17:22:49.770Z,64.95
2022-12-14T17:25:21.108Z,66.25
2022-12-14T17:27:50.168Z,52.45
2022-12-14T17:30:23.987Z,59.95
2022-12-14T17:32:55.756Z,62.85
2022-12-14T17:35:32.232Z,61.78
2022-12-14T17:38:00.267Z,66.78
2022-12-14T17:40:30.162Z,62.38
2022-12-14T17:43:00.168Z,67.25
2022-12-14T17:45:30.707Z,66.93
2022-12-14T17:48:01.354Z,66.93
2022-12-14T17:50:32.281Z,75.10
2022-12-14T17:53:02.290Z,66.70
2022-12-14T17:55:32.783Z,76.43
2022-12-14T17:58:02.944Z,68.53
2022-12-14T18:00:52.353Z,73.93
2022-12-14T18:03:22.394Z,73.78
2022-12-14T18:05:52.820Z,74.55
2022-12-14T18:08:24.739Z,75.15
2022-12-14T18:11:10.241Z,64.32
2022-12-14T18:13:44.720Z,67.88
2022-12-14T18:16:24.163Z,65.53
2022-12-14T18:18:54.955Z,74.40
2022-12-14T18:21:30.237Z,76.10
2022-12-14T18:24:00.773Z,80.53
2022-12-14T18:26:30.827Z,65.95
2022-12-14T18:29:00.853Z,65.57
2022-12-14T18:31:38.213Z,80.68
2022-12-14T18:34:10.949Z,67.93
2022-12-14T18:36:41.356Z,72.10
2022-12-14T18:39:11.425Z,76.30
2022-12-14T18:41:39.885Z,83.75
2022-12-14T18:44:11.467Z,64.20
2022-12-14T18:46:39.976Z,74.68
2022-12-14T18:49:08.261Z,68.97
2022-12-14T18:51:36.785Z,79.75
2022-12-14T18:54:06.884Z,75.55
2022-12-14T18:56:37.051Z,69.15
2022-12-14T18:59:07.067Z,68.07
2022-12-14T19:01:37.256Z,81.45
2022-12-14T19:04:08.285Z,82.53
2022-12-14T19:06:46.012Z,78.47
2022-12-14T19:09:15.493Z,75.80
2022-12-14T19:11:45.507Z,85.95
2022-12-14T19:14:16.071Z,79.07
2022-12-14T19:16:45.153Z,84.95
2022-12-14T19:19:15.041Z,78.68
2022-12-14T19:21:44.762Z,81.82
2022-12-14T19:24:15.099Z,81.43
2022-12-14T19:26:45.431Z,73.28
2022-12-14T19:29:19.920Z,72.35
2022-12-14T19:31:54.037Z,73.50
2022-12-14T19:34:24.640Z,80.82
2022-12-14T19:36:54.729Z,81.25
2022-12-14T19:39:24.476Z,72.07
2022-12-14T19:41:54.946Z,73.68
2022-12-14T19:44:25.083Z,71.85
2022-12-14T19:46:54.950Z,77.35
2022-12-14T19:49:24.763Z,75.00
2022-12-14T19:51:54.685Z,70.57
2022-12-14T19:54:24.420Z,70.15
2022-12-14T19:56:54.482Z,73.50
2022-12-14T19:59:24.226Z,82.60
2022-12-14T20:01:54.246Z,77.00
2022-12-14T20:04:24.658Z,76.22
2022-12-14T20:06:54.911Z,77.55
2022-12-14T20:09:24.838Z,70.50
2022-12-14T20:11:54.621Z,81.60
2022-12-14T20:14:26.543Z,77.38
2022-12-14T20:16:56.431Z,80.88
2022-12-14T20:19:24.958Z,86.40
2022-12-14T20:21:53.149Z,86.38
2022-12-14T20:24:21.337Z,84.53
2022-12-14T20:26:51.437Z,85.65
2022-12-14T20:29:19.793Z,78.80
2022-12-14T20:31:50.279Z,78.43
2022-12-14T20:34:19.767Z,85.63
2022-12-14T20:36:49.577Z,73.38
2022-12-14T20:39:19.578Z,89.00
2022-12-14T20:41:49.319Z,85.43
2022-12-14T20:44:19.474Z,85.15
2022-12-14T20:46:51.936Z,86.97
2022-12-14T20:49:23.279Z,78.53
2022-12-14T20:51:53.281Z,89.93
2022-12-14T20:54:24.303Z,75.97
2022-12-14T20:56:53.282Z,80.00
2022-12-14T20:59:23.128Z,82.95
2022-12-14T21:01:56.121Z,85.40
2022-12-14T21:04:27.120Z,82.80
2022-12-14T21:06:57.056Z,91.15
2022-12-14T21:09:27.098Z,77.85
2022-12-14T21:12:16.037Z,78.25
2022-12-14T21:14:48.077Z,87.28
2022-12-14T21:17:26.420Z,76.35
2022-12-14T21:19:55.424Z,93.88
2022-12-14T21:22:30.694Z,85.28
2022-12-14T21:25:04.865Z,90.10
2022-12-14T21:27:39.434Z,78.60
2022-12-14T21:30:12.487Z,83.70
2022-12-14T21:32:42.457Z,83.82
2022-12-14T21:35:13.403Z,75.35
2022-12-14T21:37:43.402Z,72.28
2022-12-14T21:40:33.372Z,85.60
2022-12-14T21:43:04.125Z,87.05
2022-12-14T21:45:34.363Z,77.75
2022-12-14T21:48:04.466Z,76.10
2022-12-14T21:50:34.304Z,80.00
2022-12-14T21:53:04.534Z,94.10
2022-12-14T21:55:34.252Z,84.75
2022-12-14T21:58:18.779Z,76.35
2022-12-14T22:00:46.659Z,85.90
2022-12-14T22:03:15.023Z,98.03
2022-12-14T22:05:43.394Z,93.45
2022-12-14T22:08:11.819Z,86.20
2022-12-14T22:10:40.295Z,83.28
2022-12-14T22:13:08.650Z,87.80
2022-12-14T22:15:37.227Z,91.68
2022-12-14T22:18:05.746Z,82.47
2022-12-14T22:20:34.050Z,86.30
2022-12-14T22:23:02.332Z,82.30
2022-12-14T22:25:30.817Z,95.85
2022-12-14T22:27:59.291Z,80.85
2022-12-14T22:30:31.643Z,80.13
2022-12-14T22:33:01.959Z,80.22
2022-12-14T22:35:32.207Z,79.40
2022-12-14T22:38:02.222Z,88.65
2022-12-14T22:40:33.966Z,94.63
2022-12-14T22:43:03.263Z,82.25
2022-12-14T22:45:35.329Z,82.60
2022-12-14T22:48:05.560Z,83.07
2022-12-14T22:50:35.562Z,90.75
2022-12-14T22:53:05.385Z,84.95
2022-12-14T22:55:39.825Z,90.93
2022-12-14T22:58:14.646Z,99.28
2022-12-14T23:00:44.765Z,94.90
2022-12-14T23:03:14.868Z,102.10
2022-12-14T23:05:42.569Z,97.50
2022-12-14T23:08:12.281Z,94.95
2022-12-14T23:11:00.959Z,96.03
2022-12-14T23:13:49.353Z,84.05
2022-12-14T23:16:38.025Z,94.45
2022-12-14T23:19:26.404Z,95.72
2022-12-14T23:22:12.426Z,84.35
2022-12-14T23:25:00.638Z,107.18
2022-12-14T23:27:48.954Z,83.28
2022-12-14T23:30:37.522Z,99.60
2022-12-14T23:33:26.423Z,89.70
2022-12-14T23:36:15.231Z,86.95
2022-12-14T23:39:03.094Z,81.20
2022-12-14T23:41:51.598Z,84.18
2022-12-14T23:44:40.541Z,71.65
2022-12-14T23:47:28.626Z,78.00
2022-12-14T23:50:16.936Z,81.03
2022-12-14T23:53:05.874Z,83.85
2022-12-14T23:55:54.440Z,84.60
2022-12-14T23:58:43.190Z,87.18
